createdAt,value
2018-12-06T00:00:45.181Z,2.20
2018-12-06T00:03:12.319Z,2.30
2018-12-06T00:05:39.393Z,2.20
2018-12-06T00:08:14.396Z,2.70
2018-12-06T00:10:41.536Z,2.17
2018-12-06T00:13:08.596Z,2.60
2018-12-06T00:15:35.692Z,2.50
2018-12-06T00:18:02.796Z,2.17
2018-12-06T00:20:29.896Z,2.37
2018-12-06T00:22:56.983Z,2.60
2018-12-06T00:25:24.072Z,2.03
2018-12-06T00:27:51.165Z,2.60
2018-12-06T00:30:48.957Z,2.50
2018-12-06T00:33:16.052Z,2.70
2018-12-06T00:35:43.147Z,2.17
2018-12-06T00:38:10.241Z,2.50
2018-12-06T00:40:37.329Z,2.37
2018-12-06T00:43:04.431Z,2.20
2018-12-06T00:45:31.552Z,2.40
2018-12-06T00:47:58.654Z,2.03
2018-12-06T00:50:25.729Z,2.47
2018-12-06T00:52:52.821Z,2.47
2018-12-06T00:55:19.931Z,2.30
2018-12-06T00:57:47.054Z,2.30
2018-12-06T01:00:14.157Z,2.00
2018-12-06T01:02:41.257Z,2.40
2018-12-06T01:05:08.345Z,2.30
2018-12-06T01:07:35.427Z,3.20
2018-12-06T01:10:03.338Z,2.27
2018-12-06T01:12:30.408Z,2.60
2018-12-06T01:14:57.500Z,1.87
2018-12-06T01:17:24.612Z,2.30
2018-12-06T01:19:51.732Z,2.60
2018-12-06T01:22:18.836Z,2.43
2018-12-06T01:24:45.921Z,2.40
2018-12-06T01:27:13.012Z,2.73
2018-12-06T01:29:40.121Z,2.23
2018-12-06T01:32:07.224Z,2.37
2018-12-06T01:34:34.340Z,2.20
2018-12-06T01:37:01.454Z,2.80
2018-12-06T01:39:28.592Z,2.07
2018-12-06T01:41:55.689Z,2.60
2018-12-06T01:44:22.799Z,2.40
2018-12-06T01:46:49.917Z,2.17
2018-12-06T01:49:17.020Z,2.37
2018-12-06T01:51:44.136Z,2.87
2018-12-06T01:54:11.243Z,2.30
2018-12-06T01:56:38.329Z,2.33
2018-12-06T01:59:05.448Z,1.87
2018-12-06T02:01:32.545Z,2.37
2018-12-06T02:03:59.637Z,2.37
2018-12-06T02:06:26.728Z,2.57
2018-12-06T02:08:53.829Z,2.63
2018-12-06T02:11:21.029Z,2.50
2018-12-06T02:13:48.064Z,2.27
2018-12-06T02:16:15.193Z,2.43
2018-12-06T02:18:42.288Z,2.80
2018-12-06T02:21:09.409Z,2.70
2018-12-06T02:23:36.525Z,2.23
2018-12-06T02:26:03.622Z,2.60
2018-12-06T02:28:30.720Z,2.47
2018-12-06T02:30:57.822Z,2.60
2018-12-06T02:33:24.922Z,2.53
2018-12-06T02:35:52.022Z,2.57
2018-12-06T02:38:19.138Z,2.40
2018-12-06T02:40:46.222Z,2.53
2018-12-06T02:43:13.361Z,2.27
2018-12-06T02:45:40.486Z,2.27
2018-12-06T02:48:07.567Z,2.50
2018-12-06T02:50:34.668Z,2.20
2018-12-06T02:53:01.752Z,2.27
2018-12-06T02:55:28.848Z,2.20
2018-12-06T02:58:02.579Z,2.20
2018-12-06T03:00:29.684Z,3.00
2018-12-06T03:02:56.780Z,2.57
2018-12-06T03:05:23.869Z,2.40
2018-12-06T03:07:50.987Z,2.37
2018-12-06T03:10:18.097Z,2.30
2018-12-06T03:12:45.214Z,2.60
2018-12-06T03:15:12.302Z,2.20
2018-12-06T03:17:39.398Z,2.03
2018-12-06T03:20:06.528Z,2.40
2018-12-06T03:22:33.674Z,2.00
2018-12-06T03:25:00.789Z,2.87
2018-12-06T03:27:27.973Z,2.13
2018-12-06T03:29:55.054Z,2.00
2018-12-06T03:32:22.181Z,2.40
2018-12-06T03:34:49.261Z,2.00
2018-12-06T03:37:16.369Z,2.20
2018-12-06T03:39:43.459Z,2.53
2018-12-06T03:42:10.545Z,2.27
2018-12-06T03:44:37.629Z,2.27
2018-12-06T03:47:04.693Z,2.23
2018-12-06T03:49:31.807Z,2.43
2018-12-06T03:51:58.909Z,2.17
2018-12-06T03:54:26.002Z,2.00
2018-12-06T03:56:53.081Z,2.70
2018-12-06T03:59:20.186Z,2.40
2018-12-06T04:01:47.266Z,1.97
2018-12-06T04:04:14.388Z,2.20
2018-12-06T04:06:41.472Z,2.30
2018-12-06T04:09:08.564Z,2.00
2018-12-06T04:11:35.665Z,2.40
2018-12-06T04:14:02.785Z,2.40
2018-12-06T04:16:29.873Z,2.60
2018-12-06T04:18:56.952Z,2.10
2018-12-06T04:21:24.065Z,2.37
2018-12-06T04:23:51.237Z,2.00
2018-12-06T04:26:18.341Z,2.50
2018-12-06T04:28:45.465Z,2.23
2018-12-06T04:31:12.547Z,2.30
2018-12-06T04:33:39.648Z,2.40
2018-12-06T04:36:06.754Z,2.30
2018-12-06T04:38:33.864Z,2.03
2018-12-06T04:41:00.958Z,2.03
2018-12-06T04:43:28.068Z,2.30
2018-12-06T04:45:55.159Z,2.37
2018-12-06T04:48:22.478Z,1.83
2018-12-06T04:50:49.405Z,1.93
2018-12-06T04:53:16.527Z,2.20
2018-12-06T04:55:43.621Z,2.07
2018-12-06T04:58:10.764Z,2.30
2018-12-06T05:00:37.859Z,2.30
2018-12-06T05:03:04.955Z,2.40
2018-12-06T05:05:32.048Z,2.30
2018-12-06T05:07:59.172Z,2.03
2018-12-06T05:10:26.284Z,2.60
2018-12-06T05:12:53.357Z,2.13
2018-12-06T05:15:20.477Z,2.00
2018-12-06T05:17:47.568Z,2.17
2018-12-06T05:20:14.659Z,1.77
2018-12-06T05:22:41.824Z,2.30
2018-12-06T05:25:08.888Z,2.47
2018-12-06T05:27:35.985Z,2.03
2018-12-06T05:30:03.602Z,2.00
2018-12-06T05:32:30.688Z,1.80
2018-12-06T05:34:57.818Z,2.13
2018-12-06T05:37:24.936Z,2.10
2018-12-06T05:39:52.041Z,2.17
2018-12-06T05:42:19.193Z,2.20
2018-12-06T05:44:46.289Z,2.27
2018-12-06T05:47:13.437Z,2.40
2018-12-06T05:49:40.565Z,2.10
2018-12-06T05:52:07.677Z,2.23
2018-12-06T05:54:34.785Z,2.10
2018-12-06T05:57:01.900Z,2.40
2018-12-06T05:59:29.017Z,2.10
2018-12-06T06:01:56.133Z,1.87
2018-12-06T06:04:23.224Z,2.13
2018-12-06T06:06:50.334Z,2.10
2018-12-06T06:09:17.444Z,2.03
2018-12-06T06:11:44.548Z,2.10
2018-12-06T06:14:11.640Z,2.40
2018-12-06T06:16:38.757Z,1.90
2018-12-06T06:19:05.926Z,2.30
2018-12-06T06:21:33.044Z,1.93
2018-12-06T06:24:00.163Z,2.10
2018-12-06T06:26:27.262Z,2.20
2018-12-06T06:28:54.379Z,2.40
2018-12-06T06:31:21.491Z,1.93
2018-12-06T06:33:48.588Z,2.10
2018-12-06T06:36:15.692Z,1.97
2018-12-06T06:38:42.772Z,2.40
2018-12-06T06:41:10.073Z,2.10
2018-12-06T06:43:37.173Z,1.90
2018-12-06T06:46:04.353Z,1.90
2018-12-06T06:48:31.436Z,1.97
2018-12-06T06:50:58.597Z,2.13
2018-12-06T06:53:25.708Z,2.20
2018-12-06T06:55:52.801Z,1.93
2018-12-06T06:58:19.916Z,2.30
2018-12-06T07:00:47.013Z,2.00
2018-12-06T07:03:14.108Z,2.53
2018-12-06T07:05:41.213Z,2.47
2018-12-06T07:08:08.309Z,2.17
2018-12-06T07:10:35.417Z,2.20
2018-12-06T07:13:02.530Z,2.60
2018-12-06T07:15:29.628Z,1.90
2018-12-06T07:17:56.724Z,1.77
2018-12-06T07:20:23.824Z,2.00
2018-12-06T07:22:50.936Z,1.90
2018-12-06T07:25:18.013Z,2.00
2018-12-06T07:27:45.136Z,1.90
2018-12-06T07:30:12.704Z,2.27
2018-12-06T07:32:39.387Z,2.23
2018-12-06T07:35:06.509Z,2.37
2018-12-06T07:37:33.636Z,2.10
2018-12-06T07:40:00.752Z,2.13
2018-12-06T07:42:27.876Z,2.80
2018-12-06T07:44:54.990Z,3.20
2018-12-06T07:47:22.126Z,3.30
2018-12-06T07:49:49.257Z,2.80
2018-12-06T07:52:16.408Z,3.50
2018-12-06T07:54:43.520Z,3.10
2018-12-06T07:57:10.648Z,2.70
2018-12-06T07:59:37.800Z,2.70
2018-12-06T08:02:04.924Z,2.77
2018-12-06T08:04:32.066Z,3.23
2018-12-06T08:06:59.190Z,3.10
2018-12-06T08:09:26.309Z,2.77
2018-12-06T08:11:53.424Z,2.63
2018-12-06T08:14:20.545Z,2.73
2018-12-06T08:16:47.681Z,3.07
2018-12-06T08:19:14.769Z,2.87
2018-12-06T08:21:41.910Z,2.90
2018-12-06T08:24:08.996Z,2.87
2018-12-06T08:26:36.133Z,2.63
2018-12-06T08:29:03.218Z,4.30
2018-12-06T08:31:30.345Z,2.80
2018-12-06T08:33:57.451Z,3.63
2018-12-06T08:36:24.556Z,3.20
2018-12-06T08:38:51.669Z,3.00
2018-12-06T08:41:18.785Z,2.77
2018-12-06T08:43:45.928Z,3.50
2018-12-06T08:46:13.051Z,2.67
2018-12-06T08:48:40.163Z,2.57
2018-12-06T08:51:07.274Z,3.80
2018-12-06T08:53:34.396Z,2.50
2018-12-06T08:56:01.513Z,2.47
2018-12-06T08:58:28.723Z,2.30
2018-12-06T09:00:55.774Z,2.80
2018-12-06T09:03:22.896Z,3.37
2018-12-06T09:05:50.001Z,2.93
2018-12-06T09:08:17.168Z,2.73
2018-12-06T09:10:51.314Z,3.20
2018-12-06T09:13:11.433Z,2.70
2018-12-06T09:15:38.587Z,3.03
2018-12-06T09:18:05.700Z,2.93
2018-12-06T09:20:32.805Z,2.73
2018-12-06T09:22:59.904Z,3.00
2018-12-06T09:25:27.022Z,3.00
2018-12-06T09:27:54.150Z,2.60
2018-12-06T09:30:21.291Z,2.83
2018-12-06T09:32:48.401Z,3.63
2018-12-06T09:35:15.550Z,2.63
2018-12-06T09:37:42.687Z,2.73
2018-12-06T09:40:09.868Z,3.03
2018-12-06T09:42:36.994Z,2.70
2018-12-06T09:45:05.245Z,2.63
2018-12-06T09:50:06.164Z,3.10
2018-12-06T09:52:33.252Z,2.60
2018-12-06T09:55:00.360Z,3.10
2018-12-06T09:57:27.480Z,2.87
2018-12-06T09:59:54.607Z,2.70
2018-12-06T10:02:21.729Z,2.83
2018-12-06T10:04:48.828Z,2.67
2018-12-06T10:07:15.920Z,2.27
2018-12-06T10:09:43.008Z,2.50
2018-12-06T10:12:10.112Z,2.53
2018-12-06T10:14:37.222Z,2.53
2018-12-06T10:17:04.317Z,2.90
2018-12-06T10:19:31.433Z,2.80
2018-12-06T10:21:58.538Z,3.23
2018-12-06T10:24:25.642Z,2.37
2018-12-06T10:26:52.777Z,3.00
2018-12-06T10:29:19.865Z,2.53
2018-12-06T10:31:46.977Z,2.77
2018-12-06T10:34:14.060Z,2.60
2018-12-06T10:36:41.152Z,2.73
2018-12-06T10:39:08.241Z,2.43
2018-12-06T10:41:35.429Z,3.00
2018-12-06T10:44:02.534Z,2.40
2018-12-06T10:46:29.660Z,3.23
2018-12-06T10:48:57.177Z,2.70
2018-12-06T10:51:35.951Z,2.80
2018-12-06T10:54:03.450Z,2.87
2018-12-06T10:56:30.891Z,3.00
2018-12-06T10:58:58.229Z,2.90
2018-12-06T11:01:31.290Z,2.50
2018-12-06T11:03:59.426Z,3.07
2018-12-06T11:06:27.075Z,3.13
2018-12-06T11:08:54.736Z,2.33
2018-12-06T11:11:22.142Z,2.60
2018-12-06T11:13:49.593Z,2.40
2018-12-06T11:16:17.170Z,2.90
2018-12-06T11:18:44.396Z,2.83
2018-12-06T11:21:11.872Z,2.63
2018-12-06T11:23:38.998Z,2.90
2018-12-06T11:26:06.096Z,2.80
2018-12-06T11:28:33.214Z,2.90
2018-12-06T11:31:00.329Z,2.83
2018-12-06T11:33:27.453Z,2.40
2018-12-06T11:35:54.578Z,2.20
2018-12-06T11:38:21.682Z,2.90
2018-12-06T11:47:44.437Z,2.77
2018-12-06T11:50:11.581Z,2.70
2018-12-06T11:52:38.790Z,2.87
2018-12-06T11:55:05.886Z,2.80
2018-12-06T11:57:32.997Z,2.50
2018-12-06T12:00:00.076Z,2.47
2018-12-06T12:02:27.196Z,3.20
2018-12-06T12:04:54.293Z,2.90
2018-12-06T12:07:21.407Z,2.40
2018-12-06T12:09:48.521Z,2.60
2018-12-06T12:12:15.640Z,2.57
2018-12-06T12:14:42.733Z,2.53
2018-12-06T12:17:09.837Z,2.30
2018-12-06T12:19:36.948Z,2.50
2018-12-06T12:22:04.062Z,2.33
2018-12-06T12:24:31.169Z,3.00
2018-12-06T12:26:58.278Z,3.00
2018-12-06T12:29:25.368Z,2.23
2018-12-06T12:31:52.488Z,2.50
2018-12-06T12:34:19.625Z,2.73
2018-12-06T12:36:46.745Z,2.67
2018-12-06T12:39:13.856Z,2.40
2018-12-06T12:41:40.988Z,2.77
2018-12-06T12:44:08.145Z,3.27
2018-12-06T12:46:35.266Z,2.60
2018-12-06T12:49:02.381Z,3.00
2018-12-06T12:51:29.518Z,2.83
2018-12-06T12:53:56.629Z,2.30
2018-12-06T12:56:23.754Z,2.87
2018-12-06T12:58:50.852Z,2.47
2018-12-06T13:01:17.972Z,2.90
2018-12-06T13:03:45.100Z,2.97
2018-12-06T13:06:12.247Z,2.60
2018-12-06T13:08:39.411Z,2.50
2018-12-06T13:11:06.570Z,2.30
2018-12-06T13:13:33.704Z,2.20
2018-12-06T13:16:00.816Z,2.60
2018-12-06T13:18:27.946Z,2.50
2018-12-06T13:20:55.065Z,3.00
2018-12-06T13:23:22.176Z,2.60
2018-12-06T13:25:49.281Z,2.50
2018-12-06T13:28:16.414Z,2.87
2018-12-06T13:30:43.534Z,2.57
2018-12-06T13:33:10.659Z,2.63
2018-12-06T13:35:37.761Z,2.47
2018-12-06T13:38:04.868Z,2.87
2018-12-06T13:40:31.996Z,2.67
2018-12-06T13:42:59.135Z,2.87
2018-12-06T13:45:26.259Z,2.43
2018-12-06T13:47:53.381Z,2.70
2018-12-06T13:50:20.530Z,2.50
2018-12-06T13:52:47.663Z,2.13
2018-12-06T13:55:14.804Z,2.47
2018-12-06T13:57:41.947Z,3.87
2018-12-06T14:00:09.083Z,2.80
2018-12-06T14:02:36.226Z,2.90
2018-12-06T14:05:03.365Z,2.13
2018-12-06T14:07:30.619Z,2.80
2018-12-06T14:09:57.673Z,2.70
2018-12-06T14:12:24.789Z,2.47
2018-12-06T14:14:51.956Z,2.63
2018-12-06T14:17:19.073Z,2.80
2018-12-06T14:19:46.168Z,2.83
2018-12-06T14:22:13.334Z,3.07
2018-12-06T14:24:40.418Z,2.60
2018-12-06T14:27:07.556Z,2.43
2018-12-06T14:29:34.664Z,2.87
2018-12-06T14:32:01.758Z,2.50
2018-12-06T14:34:28.929Z,2.60
2018-12-06T14:37:02.134Z,2.40
2018-12-06T14:39:23.224Z,2.53
2018-12-06T14:41:50.355Z,3.20
2018-12-06T14:44:17.454Z,2.23
2018-12-06T14:46:44.651Z,2.57
2018-12-06T14:49:11.788Z,3.17
2018-12-06T14:51:38.952Z,2.60
2018-12-06T14:54:06.100Z,2.77
2018-12-06T14:56:33.238Z,2.77
2018-12-06T14:59:00.357Z,2.60
2018-12-06T15:01:27.501Z,2.53
2018-12-06T15:03:54.629Z,2.63
2018-12-06T15:06:21.764Z,2.47
2018-12-06T15:08:48.897Z,2.47
2018-12-06T15:11:16.040Z,2.40
2018-12-06T15:13:43.183Z,2.60
2018-12-06T15:16:10.313Z,2.90
2018-12-06T15:18:37.470Z,2.47
2018-12-06T15:21:04.593Z,2.60
2018-12-06T15:23:31.721Z,3.03
2018-12-06T15:25:58.844Z,2.50
2018-12-06T15:28:25.997Z,2.67
2018-12-06T15:30:53.133Z,2.80
2018-12-06T15:33:20.301Z,2.17
2018-12-06T15:35:47.413Z,2.43
2018-12-06T15:38:14.571Z,2.80
2018-12-06T15:40:41.684Z,2.60
2018-12-06T15:43:08.852Z,2.57
2018-12-06T15:45:35.969Z,2.40
2018-12-06T15:48:03.114Z,2.97
2018-12-06T15:50:30.233Z,2.50
2018-12-06T15:52:57.388Z,2.43
2018-12-06T15:55:24.510Z,2.60
2018-12-06T15:57:51.657Z,2.20
2018-12-06T16:00:18.827Z,3.10
2018-12-06T16:02:45.960Z,2.30
2018-12-06T16:05:13.060Z,2.53
2018-12-06T16:07:40.185Z,2.17
2018-12-06T16:10:08.671Z,2.80
2018-12-06T16:12:35.792Z,2.83
2018-12-06T16:15:03.401Z,2.77
2018-12-06T16:17:30.516Z,2.57
2018-12-06T16:19:57.664Z,2.40
2018-12-06T16:22:24.832Z,2.50
2018-12-06T16:24:51.969Z,2.63
2018-12-06T16:27:19.088Z,2.73
2018-12-06T16:29:51.333Z,2.87
2018-12-06T16:32:13.313Z,2.43
2018-12-06T16:34:40.438Z,2.90
2018-12-06T16:37:07.550Z,2.83
2018-12-06T16:39:34.675Z,3.50
2018-12-06T16:42:01.810Z,3.07
2018-12-06T16:44:28.904Z,3.70
2018-12-06T16:46:56.008Z,3.17
2018-12-06T16:49:23.116Z,3.40
2018-12-06T16:51:50.257Z,3.47
2018-12-06T16:54:17.382Z,3.67
2018-12-06T16:56:44.504Z,3.30
2018-12-06T16:59:11.628Z,3.43
2018-12-06T17:01:38.732Z,3.80
2018-12-06T17:04:05.858Z,3.20
2018-12-06T17:06:33.076Z,3.27
2018-12-06T17:09:00.169Z,3.23
2018-12-06T17:11:27.294Z,3.03
2018-12-06T17:15:19.029Z,3.40
2018-12-06T17:17:46.181Z,3.20
2018-12-06T17:20:13.289Z,3.10
2018-12-06T17:22:40.372Z,3.00
2018-12-06T17:25:07.470Z,3.40
2018-12-06T17:27:34.561Z,2.90
2018-12-06T17:30:01.697Z,3.13
2018-12-06T17:32:28.820Z,3.10
2018-12-06T17:34:55.949Z,3.20
2018-12-06T17:37:23.038Z,2.80
2018-12-06T17:39:50.200Z,3.43
2018-12-06T17:42:17.311Z,2.63
2018-12-06T17:44:44.425Z,3.37
2018-12-06T17:47:11.520Z,3.07
2018-12-06T17:49:38.613Z,2.93
2018-12-06T17:52:05.723Z,3.03
2018-12-06T17:54:32.813Z,3.20
2018-12-06T17:56:59.907Z,3.50
2018-12-06T17:59:27.008Z,3.03
2018-12-06T18:01:54.141Z,2.77
2018-12-06T18:04:21.266Z,3.13
2018-12-06T18:06:48.387Z,3.43
2018-12-06T18:09:15.504Z,2.60
2018-12-06T18:11:42.621Z,2.83
2018-12-06T18:14:09.733Z,2.77
2018-12-06T18:16:36.874Z,2.90
2018-12-06T18:19:03.972Z,3.53
2018-12-06T18:21:31.073Z,3.00
2018-12-06T18:23:58.172Z,3.00
2018-12-06T18:26:25.277Z,2.63
2018-12-06T18:28:52.377Z,2.80
2018-12-06T18:31:19.480Z,3.00
2018-12-06T18:33:46.593Z,2.67
2018-12-06T18:36:13.697Z,3.00
2018-12-06T18:38:40.837Z,2.57
2018-12-06T18:41:07.911Z,3.20
2018-12-06T18:43:34.992Z,3.13
2018-12-06T18:46:02.103Z,2.97
2018-12-06T18:48:29.200Z,3.00
2018-12-06T18:50:56.306Z,2.93
2018-12-06T18:53:23.422Z,2.63
2018-12-06T18:55:50.552Z,3.10
2018-12-06T18:58:17.669Z,2.90
2018-12-06T19:00:44.788Z,3.13
2018-12-06T19:03:11.872Z,2.80
2018-12-06T19:05:38.961Z,2.77
2018-12-06T19:08:06.059Z,2.60
2018-12-06T19:10:33.177Z,2.97
2018-12-06T19:13:00.263Z,3.10
2018-12-06T19:15:27.373Z,2.67
2018-12-06T19:17:54.472Z,2.63
2018-12-06T19:20:21.567Z,3.23
2018-12-06T19:22:48.694Z,2.73
2018-12-06T19:25:15.813Z,2.90
2018-12-06T19:27:42.900Z,2.73
2018-12-06T19:30:10.011Z,2.87
2018-12-06T19:32:37.117Z,3.43
2018-12-06T19:35:05.033Z,3.10
2018-12-06T19:37:32.222Z,3.10
2018-12-06T19:39:59.325Z,2.70
2018-12-06T19:42:26.467Z,2.77
2018-12-06T19:44:53.581Z,2.80
2018-12-06T19:47:20.697Z,3.50
2018-12-06T19:49:47.825Z,3.20
2018-12-06T19:52:14.961Z,2.60
2018-12-06T19:54:42.066Z,2.97
2018-12-06T19:57:09.214Z,3.20
2018-12-06T19:59:36.321Z,2.60
2018-12-06T20:02:03.453Z,2.80
2018-12-06T20:04:30.599Z,2.63
2018-12-06T20:06:57.712Z,3.10
2018-12-06T20:09:24.803Z,2.70
2018-12-06T20:11:51.934Z,2.83
2018-12-06T20:14:19.032Z,2.80
2018-12-06T20:16:46.097Z,2.80
2018-12-06T20:19:13.185Z,2.67
2018-12-06T20:21:40.284Z,3.07
2018-12-06T20:24:07.396Z,2.83
2018-12-06T20:26:34.476Z,2.77
2018-12-06T20:29:01.568Z,3.00
2018-12-06T20:31:28.694Z,2.87
2018-12-06T20:33:55.813Z,3.37
2018-12-06T20:36:22.924Z,2.43
2018-12-06T20:38:50.028Z,2.97
2018-12-06T20:41:17.148Z,2.83
2018-12-06T20:43:44.246Z,3.20
2018-12-06T20:46:11.389Z,2.70
2018-12-06T20:48:38.452Z,2.87
2018-12-06T20:51:05.581Z,3.40
2018-12-06T20:53:32.673Z,3.10
2018-12-06T20:55:59.785Z,3.13
2018-12-06T20:58:26.865Z,2.80
2018-12-06T21:00:53.949Z,3.10
2018-12-06T21:03:21.060Z,3.40
2018-12-06T21:05:48.161Z,3.07
2018-12-06T21:08:15.302Z,3.20
2018-12-06T21:10:42.392Z,3.00
2018-12-06T21:13:09.491Z,3.47
2018-12-06T21:15:36.596Z,3.40
2018-12-06T21:18:03.717Z,3.57
2018-12-06T21:20:30.804Z,2.90
2018-12-06T21:22:57.888Z,3.37
2018-12-06T21:25:24.999Z,3.50
2018-12-06T21:27:52.112Z,3.13
2018-12-06T21:30:19.229Z,3.10
2018-12-06T21:32:46.340Z,3.60
2018-12-06T21:35:13.454Z,3.07
2018-12-06T21:37:40.573Z,4.07
2018-12-06T21:40:07.713Z,3.50
2018-12-06T21:42:34.815Z,3.20
2018-12-06T21:45:01.950Z,3.37
2018-12-06T21:47:29.060Z,3.10
2018-12-06T21:49:56.177Z,3.40
2018-12-06T21:52:23.300Z,3.20
2018-12-06T21:54:50.461Z,2.93
2018-12-06T21:57:17.529Z,3.23
2018-12-06T21:59:44.616Z,3.27
2018-12-06T22:02:23.256Z,3.20
2018-12-06T22:04:50.334Z,3.13
2018-12-06T22:07:17.487Z,3.50
2018-12-06T22:09:44.631Z,3.13
2018-12-06T22:12:11.745Z,3.60
2018-12-06T22:14:38.860Z,3.30
2018-12-06T22:17:05.949Z,3.10
2018-12-06T22:19:33.045Z,3.17
2018-12-06T22:22:00.164Z,2.87
2018-12-06T22:24:27.257Z,3.03
2018-12-06T22:26:54.412Z,3.23
2018-12-06T22:29:21.501Z,3.40
2018-12-06T22:31:48.604Z,3.13
2018-12-06T22:34:15.742Z,3.03
2018-12-06T22:36:42.855Z,3.10
2018-12-06T22:39:10.011Z,3.40
2018-12-06T22:41:37.092Z,3.00
2018-12-06T22:44:04.200Z,3.57
2018-12-06T22:46:31.319Z,2.93
2018-12-06T22:48:58.431Z,2.90
2018-12-06T22:51:25.541Z,3.17
2018-12-06T22:53:52.624Z,3.20
2018-12-06T22:56:19.696Z,3.43
2018-12-06T22:58:46.788Z,3.43
2018-12-06T23:01:13.872Z,3.50
2018-12-06T23:03:40.968Z,3.03
2018-12-06T23:06:08.048Z,3.27
2018-12-06T23:08:35.169Z,3.03
2018-12-06T23:11:02.288Z,3.43
2018-12-06T23:13:29.401Z,3.13
2018-12-06T23:15:56.569Z,2.83
2018-12-06T23:18:23.680Z,3.13
2018-12-06T23:20:50.789Z,3.33
2018-12-06T23:23:17.872Z,2.90
2018-12-06T23:25:44.990Z,2.80
2018-12-06T23:28:13.083Z,2.80
2018-12-06T23:30:39.239Z,3.00
2018-12-06T23:33:06.325Z,2.80
2018-12-06T23:35:33.398Z,2.83
2018-12-06T23:38:00.497Z,2.80
2018-12-06T23:40:27.569Z,2.97
2018-12-06T23:42:54.668Z,3.10
2018-12-06T23:45:21.758Z,2.57
2018-12-06T23:47:48.853Z,3.03
2018-12-06T23:50:15.932Z,2.97
2018-12-06T23:52:43.030Z,2.90
2018-12-06T23:55:10.128Z,2.60
2018-12-06T23:57:37.249Z,2.50
